sensor_id;sensor_type;location;lat;lon;timestamp;P1;durP1;ratioP1;P2;durP2;ratioP2
61907;SDS011;47864;52.526;19.672;2022-08-21T00:01:11;16.30;;;7.43;;
61907;SDS011;47864;52.526;19.672;2022-08-21T00:03:16;17.65;;;7.90;;
61907;SDS011;47864;52.526;19.672;2022-08-21T00:05:19;18.48;;;8.30;;
61907;SDS011;47864;52.526;19.672;2022-08-21T00:07:21;21.70;;;8.68;;
61907;SDS011;47864;52.526;19.672;2022-08-21T00:09:25;25.02;;;13.43;;
61907;SDS011;47864;52.526;19.672;2022-08-21T00:11:27;18.48;;;9.05;;
61907;SDS011;47864;52.526;19.672;2022-08-21T00:13:29;20.90;;;10.13;;
61907;SDS011;47864;52.526;19.672;2022-08-21T00:15:31;20.10;;;9.55;;
61907;SDS011;47864;52.526;19.672;2022-08-21T00:17:35;19.13;;;8.68;;
61907;SDS011;47864;52.526;19.672;2022-08-21T00:19:37;17.70;;;8.00;;
61907;SDS011;47864;52.526;19.672;2022-08-21T00:21:39;17.95;;;8.82;;
61907;SDS011;47864;52.526;19.672;2022-08-21T00:23:44;13.85;;;7.55;;
61907;SDS011;47864;52.526;19.672;2022-08-21T00:25:46;17.90;;;7.40;;
61907;SDS011;47864;52.526;19.672;2022-08-21T00:27:48;21.40;;;7.60;;
61907;SDS011;47864;52.526;19.672;2022-08-21T00:29:50;17.95;;;7.68;;
61907;SDS011;47864;52.526;19.672;2022-08-21T00:31:51;18.02;;;7.32;;
61907;SDS011;47864;52.526;19.672;2022-08-21T00:33:54;27.48;;;10.55;;
61907;SDS011;47864;52.526;19.672;2022-08-21T00:36:01;26.80;;;11.07;;
61907;SDS011;47864;52.526;19.672;2022-08-21T00:38:05;20.50;;;9.00;;
61907;SDS011;47864;52.526;19.672;2022-08-21T00:40:09;27.30;;;10.45;;
61907;SDS011;47864;52.526;19.672;2022-08-21T00:42:14;24.40;;;10.15;;
61907;SDS011;47864;52.526;19.672;2022-08-21T00:44:16;17.70;;;8.30;;
61907;SDS011;47864;52.526;19.672;2022-08-21T00:46:18;17.55;;;8.25;;
61907;SDS011;47864;52.526;19.672;2022-08-21T00:48:21;18.15;;;7.45;;
61907;SDS011;47864;52.526;19.672;2022-08-21T00:50:26;18.80;;;7.97;;
61907;SDS011;47864;52.526;19.672;2022-08-21T00:52:31;16.33;;;7.65;;
61907;SDS011;47864;52.526;19.672;2022-08-21T00:54:35;12.70;;;8.13;;
61907;SDS011;47864;52.526;19.672;2022-08-21T00:56:48;16.15;;;8.13;;
61907;SDS011;47864;52.526;19.672;2022-08-21T00:58:55;13.23;;;8.07;;
61907;SDS011;47864;52.526;19.672;2022-08-21T01:03:04;16.23;;;7.67;;
61907;SDS011;47864;52.526;19.672;2022-08-21T01:05:11;19.52;;;8.20;;
61907;SDS011;47864;52.526;19.672;2022-08-21T01:07:13;20.17;;;8.93;;
61907;SDS011;47864;52.526;19.672;2022-08-21T01:09:16;15.02;;;8.20;;
61907;SDS011;47864;52.526;19.672;2022-08-21T01:11:18;17.13;;;8.60;;
61907;SDS011;47864;52.526;19.672;2022-08-21T01:13:21;21.38;;;8.65;;
61907;SDS011;47864;52.526;19.672;2022-08-21T01:15:25;16.60;;;8.50;;
61907;SDS011;47864;52.526;19.672;2022-08-21T01:17:31;16.85;;;7.63;;
61907;SDS011;47864;52.526;19.672;2022-08-21T01:19:33;24.07;;;9.93;;
61907;SDS011;47864;52.526;19.672;2022-08-21T01:21:35;18.98;;;12.35;;
61907;SDS011;47864;52.526;19.672;2022-08-21T01:23:38;15.30;;;10.00;;
61907;SDS011;47864;52.526;19.672;2022-08-21T01:25:42;14.52;;;8.68;;
61907;SDS011;47864;52.526;19.672;2022-08-21T01:27:44;13.05;;;9.05;;
61907;SDS011;47864;52.526;19.672;2022-08-21T01:29:57;19.38;;;9.73;;
61907;SDS011;47864;52.526;19.672;2022-08-21T01:32:08;22.65;;;10.15;;
61907;SDS011;47864;52.526;19.672;2022-08-21T01:34:17;20.40;;;11.20;;
61907;SDS011;47864;52.526;19.672;2022-08-21T01:36:19;16.40;;;9.73;;
61907;SDS011;47864;52.526;19.672;2022-08-21T01:38:21;17.77;;;10.10;;
61907;SDS011;47864;52.526;19.672;2022-08-21T01:40:23;19.25;;;9.68;;
61907;SDS011;47864;52.526;19.672;2022-08-21T01:42:25;21.38;;;9.63;;
61907;SDS011;47864;52.526;19.672;2022-08-21T01:44:27;16.90;;;8.73;;
61907;SDS011;47864;52.526;19.672;2022-08-21T01:46:29;21.77;;;8.65;;
61907;SDS011;47864;52.526;19.672;2022-08-21T01:48:31;16.25;;;8.75;;
61907;SDS011;47864;52.526;19.672;2022-08-21T01:50:32;19.58;;;8.50;;
61907;SDS011;47864;52.526;19.672;2022-08-21T01:52:34;19.25;;;9.00;;
61907;SDS011;47864;52.526;19.672;2022-08-21T01:54:37;30.13;;;13.00;;
61907;SDS011;47864;52.526;19.672;2022-08-21T01:56:40;37.35;;;14.25;;
61907;SDS011;47864;52.526;19.672;2022-08-21T01:58:46;26.33;;;12.82;;
61907;SDS011;47864;52.526;19.672;2022-08-21T02:00:49;29.30;;;14.65;;
61907;SDS011;47864;52.526;19.672;2022-08-21T02:02:51;22.35;;;11.07;;
61907;SDS011;47864;52.526;19.672;2022-08-21T02:04:53;21.77;;;11.25;;
61907;SDS011;47864;52.526;19.672;2022-08-21T02:06:55;28.48;;;13.13;;
61907;SDS011;47864;52.526;19.672;2022-08-21T02:08:57;24.60;;;12.40;;
61907;SDS011;47864;52.526;19.672;2022-08-21T02:10:59;18.52;;;10.88;;
61907;SDS011;47864;52.526;19.672;2022-08-21T02:13:01;18.25;;;9.68;;
61907;SDS011;47864;52.526;19.672;2022-08-21T02:15:03;18.50;;;9.85;;
61907;SDS011;47864;52.526;19.672;2022-08-21T02:17:07;18.35;;;9.90;;
61907;SDS011;47864;52.526;19.672;2022-08-21T02:19:10;21.70;;;10.43;;
61907;SDS011;47864;52.526;19.672;2022-08-21T02:21:14;18.80;;;9.52;;
61907;SDS011;47864;52.526;19.672;2022-08-21T02:23:16;19.15;;;9.43;;
61907;SDS011;47864;52.526;19.672;2022-08-21T02:25:20;21.58;;;9.90;;
61907;SDS011;47864;52.526;19.672;2022-08-21T02:27:23;25.67;;;9.90;;
61907;SDS011;47864;52.526;19.672;2022-08-21T02:29:27;14.15;;;8.85;;
61907;SDS011;47864;52.526;19.672;2022-08-21T02:31:29;17.15;;;8.60;;
61907;SDS011;47864;52.526;19.672;2022-08-21T02:33:32;17.48;;;8.45;;
61907;SDS011;47864;52.526;19.672;2022-08-21T02:35:34;16.55;;;9.02;;
61907;SDS011;47864;52.526;19.672;2022-08-21T02:38:11;17.80;;;9.30;;
61907;SDS011;47864;52.526;19.672;2022-08-21T02:40:06;18.95;;;8.50;;
61907;SDS011;47864;52.526;19.672;2022-08-21T02:42:09;17.15;;;7.57;;
61907;SDS011;47864;52.526;19.672;2022-08-21T02:44:10;12.05;;;8.07;;
61907;SDS011;47864;52.526;19.672;2022-08-21T02:46:14;11.15;;;7.90;;
61907;SDS011;47864;52.526;19.672;2022-08-21T02:48:20;17.77;;;8.18;;
61907;SDS011;47864;52.526;19.672;2022-08-21T02:50:25;20.50;;;7.75;;
61907;SDS011;47864;52.526;19.672;2022-08-21T02:52:30;15.15;;;8.30;;
61907;SDS011;47864;52.526;19.672;2022-08-21T02:54:31;16.35;;;8.48;;
61907;SDS011;47864;52.526;19.672;2022-08-21T02:56:33;19.88;;;9.40;;
61907;SDS011;47864;52.526;19.672;2022-08-21T02:58:38;20.48;;;8.75;;
61907;SDS011;47864;52.526;19.672;2022-08-21T03:00:42;18.00;;;9.38;;
61907;SDS011;47864;52.526;19.672;2022-08-21T03:02:45;18.75;;;9.10;;
61907;SDS011;47864;52.526;19.672;2022-08-21T03:04:46;17.48;;;9.32;;
61907;SDS011;47864;52.526;19.672;2022-08-21T03:06:48;17.88;;;9.95;;
61907;SDS011;47864;52.526;19.672;2022-08-21T03:08:50;16.05;;;9.18;;
61907;SDS011;47864;52.526;19.672;2022-08-21T03:10:52;18.23;;;9.10;;
61907;SDS011;47864;52.526;19.672;2022-08-21T03:12:54;18.45;;;9.23;;
61907;SDS011;47864;52.526;19.672;2022-08-21T03:14:57;20.02;;;9.13;;
61907;SDS011;47864;52.526;19.672;2022-08-21T03:16:59;17.10;;;8.85;;
61907;SDS011;47864;52.526;19.672;2022-08-21T03:19:01;15.23;;;8.65;;
61907;SDS011;47864;52.526;19.672;2022-08-21T03:21:03;27.80;;;8.97;;
61907;SDS011;47864;52.526;19.672;2022-08-21T03:23:05;22.58;;;9.38;;
61907;SDS011;47864;52.526;19.672;2022-08-21T03:25:14;17.25;;;9.13;;
61907;SDS011;47864;52.526;19.672;2022-08-21T03:27:16;20.33;;;8.95;;
61907;SDS011;47864;52.526;19.672;2022-08-21T03:29:20;15.43;;;8.45;;
61907;SDS011;47864;52.526;19.672;2022-08-21T03:31:22;12.57;;;8.07;;
61907;SDS011;47864;52.526;19.672;2022-08-21T03:33:24;15.18;;;8.98;;
61907;SDS011;47864;52.526;19.672;2022-08-21T03:35:28;18.33;;;8.98;;
61907;SDS011;47864;52.526;19.672;2022-08-21T03:37:31;17.38;;;9.52;;
61907;SDS011;47864;52.526;19.672;2022-08-21T03:39:34;14.75;;;8.85;;
61907;SDS011;47864;52.526;19.672;2022-08-21T03:41:41;15.10;;;8.25;;
61907;SDS011;47864;52.526;19.672;2022-08-21T03:43:43;14.98;;;8.15;;
61907;SDS011;47864;52.526;19.672;2022-08-21T03:45:45;18.40;;;8.15;;
61907;SDS011;47864;52.526;19.672;2022-08-21T03:48:06;16.27;;;7.90;;
61907;SDS011;47864;52.526;19.672;2022-08-21T03:50:09;14.73;;;7.03;;
61907;SDS011;47864;52.526;19.672;2022-08-21T03:52:11;16.65;;;7.07;;
61907;SDS011;47864;52.526;19.672;2022-08-21T03:54:13;12.60;;;7.60;;
61907;SDS011;47864;52.526;19.672;2022-08-21T03:56:15;14.68;;;8.25;;
61907;SDS011;47864;52.526;19.672;2022-08-21T03:58:17;13.90;;;8.25;;
61907;SDS011;47864;52.526;19.672;2022-08-21T04:00:21;14.32;;;8.00;;
61907;SDS011;47864;52.526;19.672;2022-08-21T04:02:22;15.93;;;8.82;;
61907;SDS011;47864;52.526;19.672;2022-08-21T04:04:25;17.20;;;9.48;;
61907;SDS011;47864;52.526;19.672;2022-08-21T04:06:28;17.30;;;10.57;;
61907;SDS011;47864;52.526;19.672;2022-08-21T04:08:34;16.75;;;10.10;;
61907;SDS011;47864;52.526;19.672;2022-08-21T04:10:37;14.82;;;9.23;;
61907;SDS011;47864;52.526;19.672;2022-08-21T04:12:40;15.77;;;9.80;;
61907;SDS011;47864;52.526;19.672;2022-08-21T04:14:42;23.20;;;10.13;;
61907;SDS011;47864;52.526;19.672;2022-08-21T04:16:44;18.02;;;9.85;;
61907;SDS011;47864;52.526;19.672;2022-08-21T04:18:46;17.77;;;11.50;;
61907;SDS011;47864;52.526;19.672;2022-08-21T04:20:48;26.38;;;12.50;;
61907;SDS011;47864;52.526;19.672;2022-08-21T04:22:52;18.80;;;11.65;;
61907;SDS011;47864;52.526;19.672;2022-08-21T04:24:55;22.92;;;11.90;;
61907;SDS011;47864;52.526;19.672;2022-08-21T04:26:57;20.77;;;11.57;;
61907;SDS011;47864;52.526;19.672;2022-08-21T04:28:59;22.33;;;11.73;;
61907;SDS011;47864;52.526;19.672;2022-08-21T04:31:00;21.48;;;11.95;;
61907;SDS011;47864;52.526;19.672;2022-08-21T04:33:02;18.13;;;11.05;;
61907;SDS011;47864;52.526;19.672;2022-08-21T04:35:06;16.42;;;10.77;;
61907;SDS011;47864;52.526;19.672;2022-08-21T04:37:10;15.02;;;10.88;;
61907;SDS011;47864;52.526;19.672;2022-08-21T04:39:12;17.33;;;10.73;;
61907;SDS011;47864;52.526;19.672;2022-08-21T04:41:16;14.25;;;9.48;;
61907;SDS011;47864;52.526;19.672;2022-08-21T04:43:28;18.55;;;10.60;;
61907;SDS011;47864;52.526;19.672;2022-08-21T04:45:37;14.60;;;10.05;;
61907;SDS011;47864;52.526;19.672;2022-08-21T04:47:45;20.15;;;10.75;;
61907;SDS011;47864;52.526;19.672;2022-08-21T04:49:53;19.65;;;12.35;;
61907;SDS011;47864;52.526;19.672;2022-08-21T04:51:55;19.05;;;11.18;;
61907;SDS011;47864;52.526;19.672;2022-08-21T04:54:00;17.58;;;11.73;;
61907;SDS011;47864;52.526;19.672;2022-08-21T04:56:09;16.83;;;11.32;;
61907;SDS011;47864;52.526;19.672;2022-08-21T04:58:17;12.93;;;8.70;;
61907;SDS011;47864;52.526;19.672;2022-08-21T05:00:20;14.95;;;9.38;;
61907;SDS011;47864;52.526;19.672;2022-08-21T05:02:23;15.80;;;9.88;;
61907;SDS011;47864;52.526;19.672;2022-08-21T05:04:27;14.27;;;9.30;;
61907;SDS011;47864;52.526;19.672;2022-08-21T05:06:33;13.13;;;9.05;;
61907;SDS011;47864;52.526;19.672;2022-08-21T05:08:38;14.68;;;9.05;;
61907;SDS011;47864;52.526;19.672;2022-08-21T05:10:41;16.77;;;8.57;;
61907;SDS011;47864;52.526;19.672;2022-08-21T05:12:43;14.90;;;8.75;;
61907;SDS011;47864;52.526;19.672;2022-08-21T05:14:46;11.45;;;7.20;;
61907;SDS011;47864;52.526;19.672;2022-08-21T05:16:47;11.02;;;7.20;;
61907;SDS011;47864;52.526;19.672;2022-08-21T05:18:49;14.52;;;8.02;;
61907;SDS011;47864;52.526;19.672;2022-08-21T05:20:51;16.52;;;8.70;;
61907;SDS011;47864;52.526;19.672;2022-08-21T05:22:53;14.70;;;9.10;;
61907;SDS011;47864;52.526;19.672;2022-08-21T05:24:56;12.57;;;6.80;;
61907;SDS011;47864;52.526;19.672;2022-08-21T05:27:00;12.00;;;7.50;;
61907;SDS011;47864;52.526;19.672;2022-08-21T05:29:04;10.27;;;7.22;;
61907;SDS011;47864;52.526;19.672;2022-08-21T05:31:12;11.82;;;7.47;;
61907;SDS011;47864;52.526;19.672;2022-08-21T05:33:13;11.30;;;7.35;;
61907;SDS011;47864;52.526;19.672;2022-08-21T05:35:15;10.32;;;6.95;;
61907;SDS011;47864;52.526;19.672;2022-08-21T05:37:17;12.38;;;7.25;;
61907;SDS011;47864;52.526;19.672;2022-08-21T05:39:19;11.27;;;7.28;;
61907;SDS011;47864;52.526;19.672;2022-08-21T05:41:21;12.88;;;7.05;;
61907;SDS011;47864;52.526;19.672;2022-08-21T05:43:23;11.02;;;7.35;;
61907;SDS011;47864;52.526;19.672;2022-08-21T05:45:29;13.07;;;7.82;;
61907;SDS011;47864;52.526;19.672;2022-08-21T05:47:44;13.07;;;7.70;;
61907;SDS011;47864;52.526;19.672;2022-08-21T05:49:46;11.55;;;7.75;;
61907;SDS011;47864;52.526;19.672;2022-08-21T05:51:48;12.32;;;7.40;;
61907;SDS011;47864;52.526;19.672;2022-08-21T05:53:49;11.95;;;8.63;;
61907;SDS011;47864;52.526;19.672;2022-08-21T05:55:51;10.38;;;8.35;;
61907;SDS011;47864;52.526;19.672;2022-08-21T05:57:53;15.35;;;8.73;;
61907;SDS011;47864;52.526;19.672;2022-08-21T05:59:55;10.85;;;8.07;;
61907;SDS011;47864;52.526;19.672;2022-08-21T06:01:57;14.40;;;8.63;;
61907;SDS011;47864;52.526;19.672;2022-08-21T06:04:05;12.65;;;8.43;;
61907;SDS011;47864;52.526;19.672;2022-08-21T06:06:08;11.70;;;8.05;;
61907;SDS011;47864;52.526;19.672;2022-08-21T06:08:10;12.23;;;8.15;;
61907;SDS011;47864;52.526;19.672;2022-08-21T06:10:12;11.10;;;7.80;;
61907;SDS011;47864;52.526;19.672;2022-08-21T06:12:16;10.93;;;8.35;;
61907;SDS011;47864;52.526;19.672;2022-08-21T06:14:19;11.43;;;8.20;;
61907;SDS011;47864;52.526;19.672;2022-08-21T06:16:21;11.32;;;8.00;;
61907;SDS011;47864;52.526;19.672;2022-08-21T06:18:22;15.10;;;8.27;;
61907;SDS011;47864;52.526;19.672;2022-08-21T06:20:24;11.02;;;8.25;;
61907;SDS011;47864;52.526;19.672;2022-08-21T06:22:27;12.00;;;7.75;;
61907;SDS011;47864;52.526;19.672;2022-08-21T06:24:29;11.45;;;7.40;;
61907;SDS011;47864;52.526;19.672;2022-08-21T06:26:31;12.38;;;7.60;;
61907;SDS011;47864;52.526;19.672;2022-08-21T06:28:32;11.07;;;7.47;;
61907;SDS011;47864;52.526;19.672;2022-08-21T06:30:35;11.05;;;7.30;;
61907;SDS011;47864;52.526;19.672;2022-08-21T06:32:39;13.55;;;7.43;;
61907;SDS011;47864;52.526;19.672;2022-08-21T06:34:41;11.23;;;7.10;;
61907;SDS011;47864;52.526;19.672;2022-08-21T06:36:43;10.65;;;6.95;;
61907;SDS011;47864;52.526;19.672;2022-08-21T06:38:45;10.03;;;7.43;;
61907;SDS011;47864;52.526;19.672;2022-08-21T06:40:55;11.52;;;7.72;;
61907;SDS011;47864;52.526;19.672;2022-08-21T06:42:58;13.35;;;8.60;;
61907;SDS011;47864;52.526;19.672;2022-08-21T06:45:17;11.95;;;6.72;;
61907;SDS011;47864;52.526;19.672;2022-08-21T06:47:19;13.38;;;7.70;;
61907;SDS011;47864;52.526;19.672;2022-08-21T06:49:21;11.50;;;7.72;;
61907;SDS011;47864;52.526;19.672;2022-08-21T06:51:23;11.52;;;6.93;;
61907;SDS011;47864;52.526;19.672;2022-08-21T06:53:25;11.95;;;7.50;;
61907;SDS011;47864;52.526;19.672;2022-08-21T06:55:27;10.73;;;6.82;;
61907;SDS011;47864;52.526;19.672;2022-08-21T06:57:29;8.75;;;6.53;;
61907;SDS011;47864;52.526;19.672;2022-08-21T06:59:31;9.65;;;6.78;;
61907;SDS011;47864;52.526;19.672;2022-08-21T07:01:33;10.10;;;6.43;;
61907;SDS011;47864;52.526;19.672;2022-08-21T07:03:37;12.52;;;6.28;;
61907;SDS011;47864;52.526;19.672;2022-08-21T07:05:40;11.43;;;6.00;;
61907;SDS011;47864;52.526;19.672;2022-08-21T07:07:42;12.38;;;6.07;;
61907;SDS011;47864;52.526;19.672;2022-08-21T07:09:44;9.52;;;5.90;;
61907;SDS011;47864;52.526;19.672;2022-08-21T07:11:46;7.15;;;5.65;;
61907;SDS011;47864;52.526;19.672;2022-08-21T07:13:52;8.85;;;5.90;;
61907;SDS011;47864;52.526;19.672;2022-08-21T07:15:54;12.07;;;6.28;;
61907;SDS011;47864;52.526;19.672;2022-08-21T07:18:04;11.45;;;5.63;;
61907;SDS011;47864;52.526;19.672;2022-08-21T07:20:06;8.77;;;5.72;;
61907;SDS011;47864;52.526;19.672;2022-08-21T07:22:08;10.27;;;5.55;;
61907;SDS011;47864;52.526;19.672;2022-08-21T07:24:11;12.27;;;5.72;;
61907;SDS011;47864;52.526;19.672;2022-08-21T07:26:14;9.68;;;5.53;;
61907;SDS011;47864;52.526;19.672;2022-08-21T07:28:18;10.18;;;5.65;;
61907;SDS011;47864;52.526;19.672;2022-08-21T07:30:20;9.63;;;5.57;;
61907;SDS011;47864;52.526;19.672;2022-08-21T07:32:22;12.53;;;6.70;;
61907;SDS011;47864;52.526;19.672;2022-08-21T07:34:25;11.70;;;6.75;;
61907;SDS011;47864;52.526;19.672;2022-08-21T07:36:27;10.43;;;5.93;;
61907;SDS011;47864;52.526;19.672;2022-08-21T07:38:28;10.52;;;5.40;;
61907;SDS011;47864;52.526;19.672;2022-08-21T07:40:31;10.75;;;6.13;;
61907;SDS011;47864;52.526;19.672;2022-08-21T07:42:32;11.48;;;6.13;;
61907;SDS011;47864;52.526;19.672;2022-08-21T07:44:34;8.40;;;5.85;;
61907;SDS011;47864;52.526;19.672;2022-08-21T07:46:36;8.45;;;5.18;;
61907;SDS011;47864;52.526;19.672;2022-08-21T07:48:38;8.35;;;4.75;;
61907;SDS011;47864;52.526;19.672;2022-08-21T07:50:40;11.85;;;5.30;;
61907;SDS011;47864;52.526;19.672;2022-08-21T07:52:43;6.53;;;4.88;;
61907;SDS011;47864;52.526;19.672;2022-08-21T07:54:45;10.20;;;5.55;;
61907;SDS011;47864;52.526;19.672;2022-08-21T07:56:47;11.60;;;5.97;;
61907;SDS011;47864;52.526;19.672;2022-08-21T07:58:49;9.43;;;5.45;;
61907;SDS011;47864;52.526;19.672;2022-08-21T08:00:51;8.35;;;5.75;;
61907;SDS011;47864;52.526;19.672;2022-08-21T08:02:53;7.63;;;5.13;;
61907;SDS011;47864;52.526;19.672;2022-08-21T08:04:59;7.88;;;5.22;;
61907;SDS011;47864;52.526;19.672;2022-08-21T08:07:02;7.95;;;5.20;;
61907;SDS011;47864;52.526;19.672;2022-08-21T08:09:04;7.90;;;4.70;;
61907;SDS011;47864;52.526;19.672;2022-08-21T08:11:06;11.77;;;4.88;;
61907;SDS011;47864;52.526;19.672;2022-08-21T08:13:09;6.63;;;4.70;;
61907;SDS011;47864;52.526;19.672;2022-08-21T08:15:13;8.35;;;5.07;;
61907;SDS011;47864;52.526;19.672;2022-08-21T08:17:17;7.43;;;5.00;;
61907;SDS011;47864;52.526;19.672;2022-08-21T08:19:19;7.03;;;4.78;;
61907;SDS011;47864;52.526;19.672;2022-08-21T08:21:21;9.73;;;5.32;;
61907;SDS011;47864;52.526;19.672;2022-08-21T08:23:23;8.65;;;5.07;;
61907;SDS011;47864;52.526;19.672;2022-08-21T08:25:25;7.32;;;5.10;;
61907;SDS011;47864;52.526;19.672;2022-08-21T08:27:36;11.05;;;4.70;;
61907;SDS011;47864;52.526;19.672;2022-08-21T08:29:38;8.83;;;5.00;;
61907;SDS011;47864;52.526;19.672;2022-08-21T08:31:40;8.10;;;5.13;;
61907;SDS011;47864;52.526;19.672;2022-08-21T08:33:42;7.18;;;4.60;;
61907;SDS011;47864;52.526;19.672;2022-08-21T08:35:45;9.43;;;4.93;;
61907;SDS011;47864;52.526;19.672;2022-08-21T08:37:49;6.65;;;4.85;;
61907;SDS011;47864;52.526;19.672;2022-08-21T08:39:52;7.90;;;4.93;;
61907;SDS011;47864;52.526;19.672;2022-08-21T08:44:34;7.57;;;5.03;;
61907;SDS011;47864;52.526;19.672;2022-08-21T08:46:38;9.75;;;5.20;;
61907;SDS011;47864;52.526;19.672;2022-08-21T08:48:50;8.93;;;5.30;;
61907;SDS011;47864;52.526;19.672;2022-08-21T08:50:55;8.40;;;5.18;;
61907;SDS011;47864;52.526;19.672;2022-08-21T08:53:02;8.27;;;4.72;;
61907;SDS011;47864;52.526;19.672;2022-08-21T08:57:35;7.68;;;4.75;;
61907;SDS011;47864;52.526;19.672;2022-08-21T08:59:40;9.10;;;4.40;;
61907;SDS011;47864;52.526;19.672;2022-08-21T09:01:44;6.63;;;4.95;;
61907;SDS011;47864;52.526;19.672;2022-08-21T09:03:46;8.50;;;4.68;;
61907;SDS011;47864;52.526;19.672;2022-08-21T09:11:02;7.60;;;4.50;;
61907;SDS011;47864;52.526;19.672;2022-08-21T09:13:13;7.50;;;4.05;;
61907;SDS011;47864;52.526;19.672;2022-08-21T09:17:39;7.40;;;3.83;;
61907;SDS011;47864;52.526;19.672;2022-08-21T09:24:02;6.75;;;3.67;;
61907;SDS011;47864;52.526;19.672;2022-08-21T09:29:08;5.82;;;3.67;;
61907;SDS011;47864;52.526;19.672;2022-08-21T09:31:19;4.22;;;3.10;;
61907;SDS011;47864;52.526;19.672;2022-08-21T09:33:28;6.68;;;3.75;;
61907;SDS011;47864;52.526;19.672;2022-08-21T09:35:30;8.30;;;3.70;;
61907;SDS011;47864;52.526;19.672;2022-08-21T09:37:33;7.07;;;4.18;;
61907;SDS011;47864;52.526;19.672;2022-08-21T09:39:37;5.25;;;3.47;;
61907;SDS011;47864;52.526;19.672;2022-08-21T09:41:45;10.82;;;3.72;;
61907;SDS011;47864;52.526;19.672;2022-08-21T09:44:11;6.22;;;3.67;;
61907;SDS011;47864;52.526;19.672;2022-08-21T09:46:21;6.93;;;3.53;;
61907;SDS011;47864;52.526;19.672;2022-08-21T09:48:25;5.25;;;3.67;;
61907;SDS011;47864;52.526;19.672;2022-08-21T09:50:33;5.00;;;3.78;;
61907;SDS011;47864;52.526;19.672;2022-08-21T09:52:35;7.00;;;4.20;;
61907;SDS011;47864;52.526;19.672;2022-08-21T09:54:44;5.40;;;3.80;;
61907;SDS011;47864;52.526;19.672;2022-08-21T09:56:54;8.13;;;3.92;;
61907;SDS011;47864;52.526;19.672;2022-08-21T09:58:59;5.93;;;4.07;;
61907;SDS011;47864;52.526;19.672;2022-08-21T10:01:02;9.48;;;4.32;;
61907;SDS011;47864;52.526;19.672;2022-08-21T10:03:17;10.13;;;4.15;;
61907;SDS011;47864;52.526;19.672;2022-08-21T10:05:22;5.72;;;4.07;;
61907;SDS011;47864;52.526;19.672;2022-08-21T10:07:28;5.30;;;4.07;;
61907;SDS011;47864;52.526;19.672;2022-08-21T10:09:32;9.38;;;4.28;;
61907;SDS011;47864;52.526;19.672;2022-08-21T10:11:33;6.63;;;4.40;;
61907;SDS011;47864;52.526;19.672;2022-08-21T10:14:22;6.50;;;4.38;;
61907;SDS011;47864;52.526;19.672;2022-08-21T10:20:25;9.65;;;4.68;;
61907;SDS011;47864;52.526;19.672;2022-08-21T10:22:44;6.15;;;3.75;;
61907;SDS011;47864;52.526;19.672;2022-08-21T10:27:39;6.95;;;4.00;;
61907;SDS011;47864;52.526;19.672;2022-08-21T10:29:47;4.85;;;3.67;;
61907;SDS011;47864;52.526;19.672;2022-08-21T10:36:58;8.45;;;6.65;;
61907;SDS011;47864;52.526;19.672;2022-08-21T10:39:26;5.25;;;3.88;;
61907;SDS011;47864;52.526;19.672;2022-08-21T10:41:42;6.38;;;3.72;;
61907;SDS011;47864;52.526;19.672;2022-08-21T10:48:50;6.57;;;4.07;;
61907;SDS011;47864;52.526;19.672;2022-08-21T10:51:04;7.13;;;4.22;;
61907;SDS011;47864;52.526;19.672;2022-08-21T10:58:10;5.93;;;3.58;;
61907;SDS011;47864;52.526;19.672;2022-08-21T11:00:17;6.22;;;3.40;;
61907;SDS011;47864;52.526;19.672;2022-08-21T11:02:32;8.27;;;3.63;;
61907;SDS011;47864;52.526;19.672;2022-08-21T11:04:49;10.10;;;3.85;;
61907;SDS011;47864;52.526;19.672;2022-08-21T11:06:58;7.18;;;3.20;;
61907;SDS011;47864;52.526;19.672;2022-08-21T11:09:18;6.43;;;3.25;;
61907;SDS011;47864;52.526;19.672;2022-08-21T11:11:39;5.97;;;3.58;;
61907;SDS011;47864;52.526;19.672;2022-08-21T11:16:59;7.40;;;3.42;;
61907;SDS011;47864;52.526;19.672;2022-08-21T11:19:21;7.63;;;3.05;;
61907;SDS011;47864;52.526;19.672;2022-08-21T11:23:45;7.90;;;3.40;;
61907;SDS011;47864;52.526;19.672;2022-08-21T11:25:53;7.00;;;3.33;;
61907;SDS011;47864;52.526;19.672;2022-08-21T11:28:24;4.43;;;2.78;;
61907;SDS011;47864;52.526;19.672;2022-08-21T11:30:46;6.72;;;3.10;;
61907;SDS011;47864;52.526;19.672;2022-08-21T11:42:28;4.00;;;2.97;;
61907;SDS011;47864;52.526;19.672;2022-08-21T11:47:16;4.50;;;2.60;;
61907;SDS011;47864;52.526;19.672;2022-08-21T11:49:29;5.43;;;3.38;;
61907;SDS011;47864;52.526;19.672;2022-08-21T11:51:41;5.00;;;2.58;;
61907;SDS011;47864;52.526;19.672;2022-08-21T11:53:56;5.03;;;2.78;;
61907;SDS011;47864;52.526;19.672;2022-08-21T11:56:31;5.78;;;2.80;;
61907;SDS011;47864;52.526;19.672;2022-08-21T11:58:39;5.80;;;2.70;;
61907;SDS011;47864;52.526;19.672;2022-08-21T12:01:28;6.60;;;3.60;;
61907;SDS011;47864;52.526;19.672;2022-08-21T12:03:22;6.03;;;3.15;;
61907;SDS011;47864;52.526;19.672;2022-08-21T12:05:33;8.18;;;3.28;;
61907;SDS011;47864;52.526;19.672;2022-08-21T12:07:39;5.82;;;3.08;;
61907;SDS011;47864;52.526;19.672;2022-08-21T12:09:52;4.82;;;3.20;;
61907;SDS011;47864;52.526;19.672;2022-08-21T12:12:04;5.25;;;3.17;;
61907;SDS011;47864;52.526;19.672;2022-08-21T12:14:24;5.80;;;3.17;;
61907;SDS011;47864;52.526;19.672;2022-08-21T12:16:42;5.72;;;3.20;;
61907;SDS011;47864;52.526;19.672;2022-08-21T12:18:49;7.82;;;3.55;;
61907;SDS011;47864;52.526;19.672;2022-08-21T12:21:05;7.45;;;3.03;;
61907;SDS011;47864;52.526;19.672;2022-08-21T12:23:26;5.07;;;2.88;;
61907;SDS011;47864;52.526;19.672;2022-08-21T12:25:47;6.25;;;3.38;;
61907;SDS011;47864;52.526;19.672;2022-08-21T12:28:13;5.20;;;2.92;;
61907;SDS011;47864;52.526;19.672;2022-08-21T12:32:30;6.30;;;3.15;;
61907;SDS011;47864;52.526;19.672;2022-08-21T12:34:46;5.30;;;2.90;;
61907;SDS011;47864;52.526;19.672;2022-08-21T12:36:57;4.60;;;2.80;;
61907;SDS011;47864;52.526;19.672;2022-08-21T12:39:04;5.93;;;2.70;;
61907;SDS011;47864;52.526;19.672;2022-08-21T12:41:16;6.97;;;3.53;;
61907;SDS011;47864;52.526;19.672;2022-08-21T12:43:26;8.35;;;3.67;;
61907;SDS011;47864;52.526;19.672;2022-08-21T12:45:46;5.68;;;3.03;;
61907;SDS011;47864;52.526;19.672;2022-08-21T12:47:55;8.13;;;3.17;;
61907;SDS011;47864;52.526;19.672;2022-08-21T12:52:33;4.28;;;3.22;;
61907;SDS011;47864;52.526;19.672;2022-08-21T12:54:40;8.18;;;3.92;;
61907;SDS011;47864;52.526;19.672;2022-08-21T12:56:44;6.18;;;2.85;;
61907;SDS011;47864;52.526;19.672;2022-08-21T13:01:06;4.43;;;2.88;;
61907;SDS011;47864;52.526;19.672;2022-08-21T13:03:17;7.07;;;4.22;;
61907;SDS011;47864;52.526;19.672;2022-08-21T13:05:24;9.80;;;5.38;;
61907;SDS011;47864;52.526;19.672;2022-08-21T13:07:36;8.32;;;6.03;;
61907;SDS011;47864;52.526;19.672;2022-08-21T13:09:48;12.88;;;8.95;;
61907;SDS011;47864;52.526;19.672;2022-08-21T13:11:54;10.15;;;5.28;;
61907;SDS011;47864;52.526;19.672;2022-08-21T13:13:56;5.75;;;4.47;;
61907;SDS011;47864;52.526;19.672;2022-08-21T13:16:05;10.02;;;4.80;;
61907;SDS011;47864;52.526;19.672;2022-08-21T13:18:09;7.05;;;5.20;;
61907;SDS011;47864;52.526;19.672;2022-08-21T13:20:27;9.00;;;5.53;;
61907;SDS011;47864;52.526;19.672;2022-08-21T13:22:43;7.60;;;4.85;;
61907;SDS011;47864;52.526;19.672;2022-08-21T13:24:46;10.32;;;4.97;;